createdAt,value
2023-01-08T00:04:49.420Z,25.6
2023-01-08T00:09:56.895Z,25.6
2023-01-08T00:15:19.722Z,25.5
2023-01-08T00:20:43.021Z,25.5
2023-01-08T00:26:05.389Z,25.5
2023-01-08T00:31:12.819Z,25.5
2023-01-08T00:36:36.431Z,25.4
2023-01-08T00:41:59.411Z,25.4
2023-01-08T00:47:22.348Z,25.4
2023-01-08T00:52:46.017Z,25.4
2023-01-08T00:57:53.697Z,25.4
2023-01-08T01:03:01.231Z,25.4
2023-01-08T01:08:25.432Z,25.4
2023-01-08T01:13:48.203Z,25.4
2023-01-08T01:18:56.028Z,25.3
2023-01-08T01:24:20.113Z,25.3
2023-01-08T01:29:42.842Z,25.3
2023-01-08T01:35:05.898Z,25.3
2023-01-08T01:40:14.397Z,25.3
2023-01-08T01:45:36.697Z,25.3
2023-01-08T01:50:44.123Z,25.3
2023-01-08T01:56:08.192Z,25.3
2023-01-08T02:01:31.190Z,25.2
2023-01-08T02:06:55.312Z,25.2
2023-01-08T02:12:19.608Z,25.2
2023-01-08T02:17:42.840Z,25.2
2023-01-08T02:22:49.817Z,25.2
2023-01-08T02:28:13.404Z,25.2
2023-01-08T02:33:36.007Z,25.1
2023-01-08T02:44:07.133Z,25.1
2023-01-08T02:49:14.438Z,25.1
2023-01-08T02:54:37.354Z,25.1
2023-01-08T03:00:00.980Z,25.1
2023-01-08T03:05:25.761Z,25.1
2023-01-08T03:10:48.186Z,25.1
2023-01-08T03:16:12.359Z,25.1
2023-01-08T03:21:37.160Z,25
2023-01-08T03:26:44.728Z,25
2023-01-08T03:32:09.244Z,25
2023-01-08T03:37:31.201Z,25
2023-01-08T03:42:53.079Z,25
2023-01-08T03:48:01.850Z,25
2023-01-08T03:53:24.367Z,25
2023-01-08T03:58:46.986Z,24.9
2023-01-08T04:04:12.217Z,24.9
2023-01-08T04:09:34.630Z,24.9
2023-01-08T04:14:56.965Z,24.9
2023-01-08T04:20:21.864Z,24.9
2023-01-08T04:25:43.620Z,24.9
2023-01-08T04:30:50.452Z,24.9
2023-01-08T04:36:14.586Z,24.9
2023-01-08T04:41:36.756Z,24.9
2023-01-08T04:46:43.498Z,24.9
2023-01-08T04:52:07.429Z,24.8
2023-01-08T04:57:29.925Z,24.9
2023-01-08T05:02:54.466Z,24.8
2023-01-08T05:08:20.119Z,24.8
2023-01-08T05:13:27.827Z,24.8
2023-01-08T05:18:50.866Z,24.8
2023-01-08T05:24:17.240Z,24.8
2023-01-08T05:29:40.503Z,24.8
2023-01-08T05:35:03.304Z,24.8
2023-01-08T05:40:11.894Z,24.8
2023-01-08T05:45:18.922Z,24.8
2023-01-08T05:50:41.883Z,24.8
2023-01-08T05:56:07.191Z,24.7
2023-01-08T06:01:31.057Z,24.7
2023-01-08T06:06:54.076Z,24.7
2023-01-08T06:12:17.588Z,24.8
2023-01-08T06:17:40.458Z,24.7
2023-01-08T06:22:16.985Z,24.7
2023-01-08T06:27:09.548Z,24.7
2023-01-08T06:32:16.467Z,24.8
2023-01-08T06:37:39.464Z,24.7
2023-01-08T06:42:47.816Z,24.5
2023-01-08T06:48:12.974Z,24.3
2023-01-08T06:53:20.542Z,24.2
2023-01-08T06:59:04.912Z,24.1
2023-01-08T07:04:29.064Z,24
2023-01-08T07:09:52.287Z,23.9
2023-01-08T07:15:15.870Z,23.9
2023-01-08T07:20:39.210Z,23.8
2023-01-08T07:26:02.348Z,23.8
2023-01-08T07:31:19.322Z,23.7
2023-01-08T07:36:45.269Z,23.8
2023-01-08T07:42:08.721Z,33.1
2023-01-08T07:47:32.177Z,35.7
2023-01-08T07:52:39.243Z,34.3
2023-01-08T07:57:46.568Z,33
2023-01-08T08:03:13.205Z,40.5
2023-01-08T08:08:35.912Z,41.2
2023-01-08T08:13:58.924Z,41.4
2023-01-08T08:19:22.713Z,36.9
2023-01-08T08:24:45.308Z,35.8
2023-01-08T08:30:08.495Z,36.3
2023-01-08T08:35:32.213Z,37.5
2023-01-08T08:40:54.838Z,38.7
2023-01-08T08:46:20.136Z,38.5
2023-01-08T08:51:43.865Z,37.7
2023-01-08T08:57:08.281Z,36.6
2023-01-08T09:02:32.603Z,37.4
2023-01-08T09:07:57.206Z,38.8
2023-01-08T09:13:19.777Z,40.2
2023-01-08T09:18:42.643Z,41.6
2023-01-08T09:24:06.151Z,42.6
2023-01-08T09:29:28.822Z,43.8
2023-01-08T09:34:51.962Z,44.7
2023-01-08T09:40:19.660Z,45.7
2023-01-08T09:45:28.892Z,46.5
2023-01-08T09:50:36.504Z,47.3
2023-01-08T09:56:10.989Z,47.9
2023-01-08T10:01:33.943Z,48.7
2023-01-08T10:06:57.669Z,49.4
2023-01-08T10:12:21.565Z,49.9
2023-01-08T10:17:45.006Z,50.6
2023-01-08T10:23:07.560Z,51.1
2023-01-08T10:28:18.163Z,51.7
2023-01-08T10:33:41.730Z,52.2
2023-01-08T10:39:06.575Z,52.7
2023-01-08T10:44:29.838Z,53.3
2023-01-08T10:49:55.003Z,53.7
2023-01-08T10:55:01.632Z,54.1
2023-01-08T11:00:10.612Z,54.6
2023-01-08T11:05:18.126Z,54.9
2023-01-08T11:10:25.336Z,55.3
2023-01-08T11:15:48.621Z,55.6
2023-01-08T11:21:11.815Z,55.9
2023-01-08T11:26:36.540Z,56.3
2023-01-08T11:31:59.560Z,56.6
2023-01-08T11:37:22.407Z,56.8
2023-01-08T11:42:48.023Z,57.1
2023-01-08T11:47:55.738Z,57.3
2023-01-08T11:53:04.904Z,57.4
2023-01-08T11:58:11.580Z,57.6
2023-01-08T12:03:34.813Z,57.8
2023-01-08T12:08:57.059Z,57.9
2023-01-08T12:14:19.340Z,58.1
2023-01-08T12:19:26.815Z,58.2
2023-01-08T12:24:48.964Z,58.3
2023-01-08T12:30:25.210Z,58.3
2023-01-08T12:35:59.356Z,58.4
2023-01-08T12:41:22.325Z,58.4
2023-01-08T12:46:56.506Z,58.4
2023-01-08T12:52:18.753Z,58.4
2023-01-08T12:57:41.336Z,58.3
2023-01-08T13:03:05.665Z,58.3
2023-01-08T13:08:13.056Z,58.2
2023-01-08T13:13:35.961Z,58
2023-01-08T13:24:06.824Z,57.5
2023-01-08T13:29:28.908Z,57.2
2023-01-08T13:34:20.423Z,56.9
2023-01-08T13:39:56.868Z,56.6
2023-01-08T13:45:07.798Z,56.2
2023-01-08T13:49:59.680Z,55.8
2023-01-08T13:55:22.464Z,55.3
2023-01-08T14:00:14.118Z,54.8
2023-01-08T14:05:37.895Z,54.3
2023-01-08T14:10:45.501Z,53.7
2023-01-08T14:16:08.431Z,53.1
2023-01-08T14:21:31.369Z,52.4
2023-01-08T14:26:54.487Z,51.8
2023-01-08T14:32:17.177Z,50.9
2023-01-08T14:37:39.752Z,47.8
2023-01-08T14:43:03.298Z,44.9
2023-01-08T14:48:19.644Z,42.7
2023-01-08T14:53:42.327Z,41
2023-01-08T14:59:05.368Z,39.7
2023-01-08T15:04:31.001Z,38.6
2023-01-08T15:09:53.402Z,37.7
2023-01-08T15:15:16.553Z,36.9
2023-01-08T15:20:39.052Z,36.3
2023-01-08T15:25:46.220Z,35.7
2023-01-08T15:31:09.377Z,35.2
2023-01-08T15:35:45.363Z,34.7
2023-01-08T15:40:39.515Z,34.3
2023-01-08T15:46:03.737Z,33.9
2023-01-08T15:51:11.588Z,33.6
2023-01-08T15:56:34.601Z,33.3
2023-01-08T16:01:58.055Z,32.9
2023-01-08T16:06:50.446Z,32.7
2023-01-08T16:11:41.734Z,32.4
2023-01-08T16:16:50.258Z,32.2
2023-01-08T16:22:13.186Z,31.9
2023-01-08T16:27:35.487Z,31.7
2023-01-08T16:33:00.712Z,31.4
2023-01-08T16:38:23.687Z,31.2
2023-01-08T16:43:30.988Z,31
2023-01-08T16:48:53.637Z,30.8
2023-01-08T16:53:45.730Z,30.6
2023-01-08T16:59:15.015Z,30.4
2023-01-08T17:04:32.612Z,30.3
2023-01-08T17:09:40.448Z,30.1
2023-01-08T17:14:47.132Z,29.9
2023-01-08T17:20:10.188Z,29.7
2023-01-08T17:25:17.661Z,29.6
2023-01-08T17:30:25.147Z,29.4
2023-01-08T17:35:48.325Z,29.3
2023-01-08T17:41:15.455Z,29.2
2023-01-08T17:46:38.904Z,29.1
2023-01-08T17:52:01.147Z,28.9
2023-01-08T17:57:09.399Z,28.8
2023-01-08T18:02:33.882Z,28.8
2023-01-08T18:07:57.884Z,28.7
2023-01-08T18:13:21.005Z,28.6
2023-01-08T18:18:12.351Z,28.5
2023-01-08T18:23:20.086Z,28.4
2023-01-08T18:28:43.403Z,28.3
2023-01-08T18:34:05.383Z,28.3
2023-01-08T18:44:36.246Z,28.1
2023-01-08T18:49:59.499Z,28
2023-01-08T18:55:08.455Z,27.9
2023-01-08T19:00:15.840Z,27.9
2023-01-08T19:10:47.254Z,27.8
2023-01-08T19:15:57.516Z,27.7
2023-01-08T19:21:21.340Z,27.6
2023-01-08T19:26:29.330Z,27.6
2023-01-08T19:31:41.150Z,27.5
2023-01-08T19:37:05.256Z,27.5
2023-01-08T19:42:12.782Z,27.4
2023-01-08T19:47:36.164Z,27.4
2023-01-08T19:53:02.652Z,27.3
2023-01-08T19:58:29.048Z,27.3
2023-01-08T20:03:42.868Z,27.2
2023-01-08T20:08:59.487Z,27.2
2023-01-08T20:14:28.730Z,27.1
2023-01-08T20:19:45.930Z,27.1
2023-01-08T20:25:15.252Z,27.1
2023-01-08T20:30:23.447Z,27
2023-01-08T20:35:17.523Z,26.9
2023-01-08T20:40:24.381Z,26.9
2023-01-08T20:46:02.040Z,26.9
2023-01-08T20:51:44.180Z,26.8
2023-01-08T20:57:08.036Z,26.8
2023-01-08T21:01:59.376Z,26.8
2023-01-08T21:07:07.146Z,26.8
2023-01-08T21:12:13.945Z,26.8
2023-01-08T21:17:06.060Z,26.8
2023-01-08T21:22:14.104Z,26.7
2023-01-08T21:26:49.068Z,26.6
2023-01-08T21:31:40.623Z,26.6
2023-01-08T21:36:47.513Z,26.6
2023-01-08T21:41:54.577Z,26.6
2023-01-08T21:47:01.707Z,26.6
2023-01-08T21:52:09.507Z,26.5
2023-01-08T21:57:18.518Z,26.5
2023-01-08T22:02:25.450Z,26.4
2023-01-08T22:07:32.578Z,26.4
2023-01-08T22:12:55.762Z,26.4
2023-01-08T22:18:18.505Z,26.4
2023-01-08T22:23:25.950Z,26.4
2023-01-08T22:28:33.289Z,26.3
2023-01-08T22:33:56.107Z,26.3
2023-01-08T22:39:05.418Z,26.3
2023-01-08T22:44:30.824Z,26.3
2023-01-08T22:49:38.073Z,26.3
2023-01-08T22:55:00.721Z,26.3
2023-01-08T23:00:23.678Z,26.2
2023-01-08T23:05:46.087Z,26.2
2023-01-08T23:10:53.709Z,26.1
2023-01-08T23:15:45.402Z,26.1
2023-01-08T23:20:44.032Z,26.1
2023-01-08T23:26:06.836Z,26.1
2023-01-08T23:31:30.215Z,26.1
2023-01-08T23:37:11.336Z,26.1
2023-01-08T23:42:32.873Z,26.1
2023-01-08T23:47:41.041Z,26
2023-01-08T23:52:47.229Z,26
2023-01-08T23:58:09.581Z,25.9
